createdAt,value
2023-05-16T00:00:40.586Z,39.33
2023-05-16T00:03:29.154Z,38.88
2023-05-16T00:06:17.655Z,39.15
2023-05-16T00:09:05.587Z,36.05
2023-05-16T00:11:53.569Z,32.45
2023-05-16T00:14:42.889Z,32.05
2023-05-16T00:17:30.934Z,29.73
2023-05-16T00:20:23.208Z,32.33
2023-05-16T00:23:11.298Z,30.45
2023-05-16T00:25:59.374Z,30.85
2023-05-16T00:28:47.251Z,30.52
2023-05-16T00:31:36.711Z,29.30
2023-05-16T00:34:24.813Z,32.17
2023-05-16T00:37:12.804Z,31.25
2023-05-16T00:40:00.776Z,30.77
2023-05-16T00:42:49.146Z,29.00
2023-05-16T00:45:37.143Z,26.55
2023-05-16T00:48:26.844Z,26.23
2023-05-16T00:51:14.976Z,25.80
2023-05-16T00:54:04.175Z,24.23
2023-05-16T00:56:52.127Z,23.15
2023-05-16T00:59:40.236Z,25.70
2023-05-16T01:02:30.100Z,25.00
2023-05-16T01:05:19.878Z,23.95
2023-05-16T01:08:07.839Z,25.05
2023-05-16T01:11:03.457Z,24.77
2023-05-16T01:14:01.890Z,22.23
2023-05-16T01:16:56.162Z,21.40
2023-05-16T01:20:05.083Z,20.52
2023-05-16T01:23:18.575Z,20.48
2023-05-16T01:26:22.493Z,19.00
2023-05-16T01:29:10.924Z,19.13
2023-05-16T01:31:59.307Z,16.05
2023-05-16T01:34:47.399Z,17.23
2023-05-16T01:37:40.890Z,16.83
2023-05-16T01:40:36.613Z,15.82
2023-05-16T01:43:32.397Z,14.55
2023-05-16T01:46:26.587Z,15.32
2023-05-16T01:49:21.369Z,16.02
2023-05-16T01:52:12.930Z,16.45
2023-05-16T01:55:01.831Z,15.13
2023-05-16T01:57:51.265Z,16.60
2023-05-16T02:00:41.318Z,15.55
2023-05-16T02:03:29.362Z,17.52
2023-05-16T02:06:17.240Z,18.10
2023-05-16T02:09:05.318Z,19.95
2023-05-16T02:11:53.265Z,19.85
2023-05-16T02:14:41.259Z,19.67
2023-05-16T02:17:30.549Z,20.15
2023-05-16T02:20:18.596Z,20.60
2023-05-16T02:23:06.631Z,20.85
2023-05-16T02:25:54.616Z,21.42
2023-05-16T02:28:42.538Z,20.17
2023-05-16T02:31:31.724Z,20.13
2023-05-16T02:34:21.404Z,21.92
2023-05-16T02:37:10.743Z,22.13
2023-05-16T02:40:00.557Z,22.38
2023-05-16T02:42:48.590Z,20.95
2023-05-16T02:45:36.655Z,21.33
2023-05-16T02:48:24.630Z,21.50
2023-05-16T02:51:13.969Z,21.60
2023-05-16T02:54:01.903Z,21.20
2023-05-16T02:56:49.983Z,22.25
2023-05-16T02:59:40.740Z,21.58
2023-05-16T03:02:29.019Z,22.23
2023-05-16T03:05:17.247Z,20.50
2023-05-16T03:08:06.892Z,19.27
2023-05-16T03:10:54.830Z,21.35
2023-05-16T03:13:42.823Z,21.50
2023-05-16T03:16:30.819Z,21.65
2023-05-16T03:19:18.780Z,21.98
2023-05-16T03:22:06.878Z,21.27
2023-05-16T03:24:56.502Z,21.33
2023-05-16T03:27:44.446Z,22.38
2023-05-16T03:30:32.403Z,21.25
2023-05-16T03:33:20.522Z,22.58
2023-05-16T03:36:09.236Z,22.85
2023-05-16T03:38:57.152Z,22.70
2023-05-16T03:41:46.533Z,23.48
2023-05-16T03:44:34.431Z,24.80
2023-05-16T03:47:22.417Z,24.85
2023-05-16T03:50:11.015Z,26.45
2023-05-16T03:52:59.056Z,25.55
2023-05-16T03:55:48.635Z,27.25
2023-05-16T03:58:38.169Z,28.27
2023-05-16T04:01:26.179Z,27.58
2023-05-16T04:04:14.347Z,27.23
2023-05-16T04:07:02.669Z,28.23
2023-05-16T04:09:50.613Z,25.40
2023-05-16T04:12:38.641Z,26.15
2023-05-16T04:15:28.442Z,25.08
2023-05-16T04:18:16.731Z,24.05
2023-05-16T04:21:05.248Z,23.27
2023-05-16T04:23:53.377Z,19.17
2023-05-16T04:26:41.299Z,21.83
2023-05-16T04:29:29.276Z,21.20
2023-05-16T04:32:18.712Z,20.85
2023-05-16T04:35:09.216Z,21.02
2023-05-16T04:37:57.216Z,20.35
2023-05-16T04:40:45.694Z,20.58
2023-05-16T04:43:33.597Z,20.95
2023-05-16T04:46:22.114Z,19.90
2023-05-16T04:49:12.247Z,20.13
2023-05-16T04:52:00.255Z,18.77
2023-05-16T04:54:48.145Z,18.08
2023-05-16T04:57:36.088Z,18.10
2023-05-16T05:00:24.426Z,18.48
2023-05-16T05:03:12.575Z,16.02
2023-05-16T05:06:02.080Z,18.00
2023-05-16T05:08:50.450Z,20.17
2023-05-16T05:11:38.372Z,20.98
2023-05-16T05:14:26.338Z,17.63
2023-05-16T05:17:14.342Z,19.05
2023-05-16T05:20:03.284Z,18.58
2023-05-16T05:22:52.771Z,17.58
2023-05-16T05:25:41.117Z,18.08
2023-05-16T05:28:29.088Z,16.80
2023-05-16T05:31:17.095Z,23.17
2023-05-16T05:34:05.092Z,18.15
2023-05-16T05:36:52.975Z,18.67
2023-05-16T05:39:42.335Z,17.58
2023-05-16T05:42:31.540Z,18.08
2023-05-16T05:45:19.639Z,18.38
2023-05-16T05:48:08.257Z,18.42
2023-05-16T05:50:56.332Z,17.85
2023-05-16T05:53:44.642Z,15.98
2023-05-16T05:56:34.361Z,18.60
2023-05-16T05:59:22.311Z,16.70
2023-05-16T06:02:10.552Z,25.80
2023-05-16T06:04:58.567Z,19.55
2023-05-16T06:07:46.550Z,18.48
2023-05-16T06:10:34.469Z,17.95
2023-05-16T06:13:23.848Z,12.88
2023-05-16T06:16:11.801Z,15.90
2023-05-16T06:18:59.754Z,21.65
2023-05-16T06:21:47.735Z,22.50
2023-05-16T06:24:35.968Z,20.38
2023-05-16T06:27:23.932Z,23.67
2023-05-16T06:30:13.843Z,17.05
2023-05-16T06:33:01.891Z,19.38
2023-05-16T06:35:49.943Z,19.27
2023-05-16T06:38:37.993Z,23.65
2023-05-16T06:41:26.479Z,17.10
2023-05-16T06:44:14.703Z,19.48
2023-05-16T06:47:04.191Z,20.27
2023-05-16T06:49:52.239Z,17.05
2023-05-16T06:52:42.567Z,18.23
2023-05-16T06:55:33.437Z,15.55
2023-05-16T06:58:21.787Z,17.90
2023-05-16T07:01:09.813Z,16.33
2023-05-16T07:03:59.361Z,12.88
2023-05-16T07:06:47.536Z,19.10
2023-05-16T07:09:35.684Z,18.98
2023-05-16T07:12:23.668Z,14.90
2023-05-16T07:15:13.283Z,18.38
2023-05-16T07:18:01.406Z,15.18
2023-05-16T07:20:51.130Z,16.95
2023-05-16T07:23:39.175Z,16.70
2023-05-16T07:26:27.170Z,13.15
2023-05-16T07:29:15.668Z,19.30
2023-05-16T07:32:03.719Z,16.65
2023-05-16T07:34:51.808Z,18.92
2023-05-16T07:37:42.606Z,13.15
2023-05-16T07:40:30.620Z,13.90
2023-05-16T07:43:18.621Z,17.65
2023-05-16T07:46:07.008Z,13.25
2023-05-16T07:48:55.097Z,15.90
2023-05-16T07:51:43.097Z,13.23
2023-05-16T07:54:33.353Z,20.38
2023-05-16T07:57:22.745Z,19.15
2023-05-16T08:00:13.691Z,12.95
2023-05-16T08:03:01.852Z,14.98
2023-05-16T08:05:50.270Z,16.00
2023-05-16T08:08:38.490Z,11.77
2023-05-16T08:11:27.981Z,12.52
2023-05-16T08:14:15.975Z,12.82
2023-05-16T08:17:04.030Z,14.45
2023-05-16T08:19:51.988Z,15.65
2023-05-16T08:22:40.200Z,15.18
2023-05-16T08:25:28.520Z,13.60
2023-05-16T08:28:18.135Z,13.10
2023-05-16T08:31:06.200Z,17.13
2023-05-16T08:33:54.231Z,15.40
2023-05-16T08:36:42.232Z,14.45
2023-05-16T08:39:30.761Z,16.70
2023-05-16T08:42:18.764Z,15.43
2023-05-16T08:45:09.435Z,16.42
2023-05-16T08:47:57.694Z,15.07
2023-05-16T08:50:45.737Z,14.05
2023-05-16T08:53:41.268Z,13.43
2023-05-16T08:56:29.504Z,13.38
2023-05-16T08:59:17.784Z,15.98
2023-05-16T09:02:07.861Z,14.35
2023-05-16T09:04:58.581Z,14.75
2023-05-16T09:07:47.276Z,13.20
2023-05-16T09:10:35.476Z,15.27
2023-05-16T09:13:23.502Z,15.27
2023-05-16T09:16:13.517Z,14.77
2023-05-16T09:19:04.526Z,14.70
2023-05-16T09:21:52.776Z,13.38
2023-05-16T09:24:41.149Z,13.18
2023-05-16T09:27:32.214Z,11.10
2023-05-16T09:30:23.218Z,9.25
2023-05-16T09:33:11.310Z,11.60
2023-05-16T09:36:02.322Z,11.52
2023-05-16T09:38:52.934Z,11.43
2023-05-16T09:41:41.181Z,10.32
2023-05-16T09:44:29.869Z,11.13
2023-05-16T09:47:18.597Z,11.80
2023-05-16T09:50:07.906Z,13.07
2023-05-16T09:52:58.306Z,12.60
2023-05-16T09:55:46.356Z,11.90
2023-05-16T09:58:36.243Z,11.98
2023-05-16T10:01:25.039Z,13.20
2023-05-16T10:04:16.123Z,12.32
2023-05-16T10:07:05.613Z,14.15
2023-05-16T10:09:57.265Z,13.95
2023-05-16T10:12:46.328Z,14.18
2023-05-16T10:15:35.606Z,14.75
2023-05-16T10:18:26.531Z,13.40
2023-05-16T10:21:17.065Z,13.82
2023-05-16T10:24:08.224Z,13.23
2023-05-16T10:26:57.892Z,15.07
2023-05-16T10:29:54.217Z,13.98
2023-05-16T10:32:43.383Z,12.05
2023-05-16T10:35:32.829Z,12.55
2023-05-16T10:38:22.498Z,12.82
2023-05-16T10:41:11.419Z,12.23
2023-05-16T10:44:02.520Z,13.25
2023-05-16T10:46:50.639Z,12.90
2023-05-16T10:49:42.459Z,13.18
2023-05-16T10:52:35.042Z,13.02
2023-05-16T10:55:23.486Z,12.13
2023-05-16T10:58:11.413Z,12.07
2023-05-16T11:01:21.826Z,11.68
2023-05-16T11:04:12.953Z,12.00
2023-05-16T11:07:02.478Z,11.98
2023-05-16T11:10:08.282Z,11.55
2023-05-16T11:12:58.342Z,12.05
2023-05-16T11:15:46.451Z,11.73
2023-05-16T11:18:35.950Z,12.65
2023-05-16T11:21:24.005Z,12.25
2023-05-16T11:24:31.276Z,12.30
2023-05-16T11:27:24.767Z,11.18
2023-05-16T11:30:15.662Z,12.07
2023-05-16T11:33:04.340Z,12.48
2023-05-16T11:36:15.914Z,11.45
2023-05-16T11:39:09.542Z,11.38
2023-05-16T11:41:57.639Z,11.63
2023-05-16T11:44:46.002Z,11.65
2023-05-16T11:47:34.080Z,10.85
2023-05-16T11:50:24.624Z,10.77
2023-05-16T11:53:14.545Z,10.65
2023-05-16T11:56:03.594Z,10.88
2023-05-16T11:58:51.902Z,9.63
2023-05-16T12:01:41.557Z,11.38
2023-05-16T12:04:29.684Z,10.95
2023-05-16T12:07:17.783Z,9.85
2023-05-16T12:10:09.012Z,10.93
2023-05-16T12:12:57.482Z,10.85
2023-05-16T12:15:45.770Z,11.10
2023-05-16T12:18:33.834Z,12.00
2023-05-16T12:21:23.598Z,11.82
2023-05-16T12:24:13.321Z,10.65
2023-05-16T12:27:02.683Z,10.50
2023-05-16T12:29:51.667Z,11.63
2023-05-16T12:32:39.995Z,12.32
2023-05-16T12:35:32.282Z,10.38
2023-05-16T12:38:21.565Z,19.17
2023-05-16T12:41:10.338Z,14.85
2023-05-16T12:44:13.495Z,11.88
2023-05-16T12:47:01.478Z,11.65
2023-05-16T12:49:51.368Z,11.48
2023-05-16T12:52:39.408Z,10.75
2023-05-16T12:55:27.503Z,11.20
2023-05-16T12:58:16.467Z,11.00
2023-05-16T13:01:06.602Z,11.38
2023-05-16T13:03:54.952Z,12.30
2023-05-16T13:06:57.798Z,11.13
2023-05-16T13:09:47.509Z,11.32
2023-05-16T13:12:35.413Z,13.18
2023-05-16T13:15:23.508Z,12.00
2023-05-16T13:18:12.996Z,11.15
2023-05-16T13:21:01.102Z,10.35
2023-05-16T13:23:49.090Z,11.13
2023-05-16T13:26:37.521Z,9.85
2023-05-16T13:29:25.586Z,10.45
2023-05-16T13:32:13.850Z,9.65
2023-05-16T13:35:04.080Z,10.45
2023-05-16T13:37:53.460Z,9.70
2023-05-16T13:40:44.543Z,8.55
2023-05-16T13:43:32.597Z,8.45
2023-05-16T13:46:20.742Z,8.60
2023-05-16T13:49:08.800Z,9.00
2023-05-16T13:51:58.666Z,10.25
2023-05-16T13:54:46.616Z,10.35
2023-05-16T13:57:34.759Z,10.98
2023-05-16T14:03:13.813Z,9.88
2023-05-16T14:06:02.017Z,11.45
2023-05-16T14:08:51.868Z,10.73
2023-05-16T14:11:40.066Z,13.98
2023-05-16T14:14:28.032Z,12.52
2023-05-16T14:17:16.258Z,13.90
2023-05-16T14:20:06.091Z,17.50
2023-05-16T14:22:54.289Z,12.65
2023-05-16T14:25:43.674Z,12.05
2023-05-16T14:28:32.838Z,13.88
2023-05-16T14:31:21.396Z,13.70
2023-05-16T14:34:09.436Z,13.45
2023-05-16T14:36:57.438Z,14.27
2023-05-16T14:39:46.651Z,13.23
2023-05-16T14:42:36.102Z,11.73
2023-05-16T14:45:24.105Z,11.27
2023-05-16T14:48:12.237Z,12.82
2023-05-16T14:51:00.329Z,10.90
2023-05-16T14:53:48.403Z,11.57
2023-05-16T14:56:36.537Z,12.35
2023-05-16T14:59:26.240Z,11.32
2023-05-16T15:02:14.321Z,11.13
2023-05-16T15:05:02.443Z,10.95
2023-05-16T15:07:51.314Z,11.43
2023-05-16T15:10:39.420Z,26.05
2023-05-16T15:13:27.390Z,13.60
2023-05-16T15:16:16.909Z,12.23
2023-05-16T15:19:05.258Z,11.65
2023-05-16T15:21:53.287Z,10.98
2023-05-16T15:24:41.365Z,14.10
2023-05-16T15:27:29.640Z,11.48
2023-05-16T15:30:17.579Z,12.32
2023-05-16T15:33:07.046Z,11.68
2023-05-16T15:35:55.010Z,11.30
2023-05-16T15:38:45.632Z,11.55
2023-05-16T15:42:00.641Z,11.82
2023-05-16T15:44:42.051Z,12.60
2023-05-16T15:47:30.114Z,14.43
2023-05-16T15:50:19.555Z,24.60
2023-05-16T15:53:07.583Z,12.73
2023-05-16T15:55:56.470Z,17.75
2023-05-16T15:58:46.821Z,12.35
2023-05-16T16:01:34.933Z,15.85
2023-05-16T16:04:23.848Z,15.73
2023-05-16T16:07:13.771Z,13.30
2023-05-16T16:10:01.756Z,17.83
2023-05-16T16:13:00.413Z,12.75
2023-05-16T16:15:48.559Z,14.30
2023-05-16T16:18:36.643Z,16.20
2023-05-16T16:21:24.933Z,14.55
2023-05-16T16:24:15.218Z,17.02
2023-05-16T16:27:03.259Z,14.07
2023-05-16T16:29:51.261Z,13.43
2023-05-16T16:32:39.795Z,12.52
2023-05-16T16:35:28.447Z,13.80
2023-05-16T16:38:17.572Z,16.00
2023-05-16T16:41:06.950Z,16.02
2023-05-16T16:43:54.950Z,16.15
2023-05-16T16:46:43.037Z,15.02
2023-05-16T16:49:31.523Z,16.73
2023-05-16T16:52:19.626Z,14.30
2023-05-16T16:55:08.918Z,13.63
2023-05-16T16:57:58.353Z,15.13
2023-05-16T17:00:46.390Z,13.38
2023-05-16T17:03:34.435Z,13.77
2023-05-16T17:06:22.488Z,13.65
2023-05-16T17:09:13.985Z,14.65
2023-05-16T17:12:07.948Z,14.88
2023-05-16T17:14:57.367Z,13.60
2023-05-16T17:17:46.048Z,14.38
2023-05-16T17:20:34.512Z,15.63
2023-05-16T17:23:22.553Z,14.43
2023-05-16T17:26:10.618Z,12.85
2023-05-16T17:29:00.257Z,12.30
2023-05-16T17:31:49.757Z,13.50
2023-05-16T17:34:37.912Z,13.20
2023-05-16T17:37:26.592Z,12.65
2023-05-16T17:40:17.222Z,10.98
2023-05-16T17:43:05.657Z,11.50
2023-05-16T17:45:53.751Z,11.75
2023-05-16T17:48:43.751Z,9.65
2023-05-16T17:51:46.589Z,9.75
2023-05-16T17:54:34.573Z,10.35
2023-05-16T17:57:22.578Z,8.90
2023-05-16T18:00:11.546Z,8.63
2023-05-16T18:02:59.943Z,8.70
2023-05-16T18:05:49.684Z,9.43
2023-05-16T18:08:37.803Z,9.88
2023-05-16T18:11:26.108Z,8.23
2023-05-16T18:14:15.622Z,7.30
2023-05-16T18:17:03.922Z,7.45
2023-05-16T18:19:52.763Z,7.15
2023-05-16T18:22:43.013Z,8.18
2023-05-16T18:25:31.701Z,7.05
2023-05-16T18:28:19.809Z,6.47
2023-05-16T18:31:08.044Z,6.88
2023-05-16T18:33:56.499Z,6.97
2023-05-16T18:36:44.883Z,6.93
2023-05-16T18:39:34.416Z,7.07
2023-05-16T18:42:22.570Z,6.32
2023-05-16T18:45:11.482Z,6.22
2023-05-16T18:47:59.673Z,6.95
2023-05-16T18:50:48.158Z,6.43
2023-05-16T18:53:36.642Z,8.82
2023-05-16T18:56:26.875Z,7.70
2023-05-16T18:59:15.173Z,8.20
2023-05-16T19:02:04.607Z,8.75
2023-05-16T19:04:53.345Z,8.90
2023-05-16T19:07:41.702Z,8.32
2023-05-16T19:10:30.110Z,9.02
2023-05-16T19:13:19.975Z,9.45
2023-05-16T19:16:08.528Z,9.65
2023-05-16T19:18:58.364Z,12.65
2023-05-16T19:21:47.943Z,10.43
2023-05-16T19:24:36.317Z,12.70
2023-05-16T19:27:24.718Z,12.35
2023-05-16T19:30:14.920Z,13.95
2023-05-16T19:33:03.614Z,13.32
2023-05-16T19:35:53.891Z,11.68
2023-05-16T19:38:42.332Z,13.52
2023-05-16T19:41:31.294Z,14.57
2023-05-16T19:44:19.717Z,16.55
2023-05-16T19:47:09.799Z,16.30
2023-05-16T19:49:58.367Z,19.42
2023-05-16T19:52:46.862Z,18.65
2023-05-16T19:55:38.148Z,20.75
2023-05-16T19:58:26.796Z,19.90
2023-05-16T20:01:15.560Z,20.23
2023-05-16T20:04:05.691Z,21.70
2023-05-16T20:06:54.025Z,20.98
2023-05-16T20:09:42.168Z,21.70
2023-05-16T20:12:30.469Z,24.67
2023-05-16T20:15:19.104Z,24.02
2023-05-16T20:18:07.416Z,24.27
2023-05-16T20:20:58.572Z,26.95
2023-05-16T20:23:46.898Z,25.77
2023-05-16T20:26:34.901Z,27.90
2023-05-16T20:29:22.910Z,26.63
2023-05-16T20:32:10.995Z,28.13
2023-05-16T20:34:59.159Z,31.33
2023-05-16T20:37:48.545Z,31.10
2023-05-16T20:40:36.584Z,33.80
2023-05-16T20:43:26.604Z,32.13
2023-05-16T20:46:14.915Z,32.20
2023-05-16T20:49:02.986Z,34.10
2023-05-16T20:51:51.119Z,35.78
2023-05-16T20:54:41.840Z,37.15
2023-05-16T20:57:29.853Z,38.35
2023-05-16T21:00:18.187Z,37.95
2023-05-16T21:03:06.340Z,39.00
2023-05-16T21:05:54.377Z,37.83
2023-05-16T21:08:42.335Z,38.05
2023-05-16T21:11:32.939Z,37.22
2023-05-16T21:14:20.956Z,38.67
2023-05-16T21:17:08.987Z,36.88
2023-05-16T21:19:57.044Z,37.25
2023-05-16T21:22:45.226Z,35.17
2023-05-16T21:25:33.467Z,33.13
2023-05-16T21:28:22.813Z,31.48
2023-05-16T21:31:10.792Z,29.90
2023-05-16T21:33:58.842Z,30.27
2023-05-16T21:36:46.853Z,30.65
2023-05-16T21:39:34.785Z,33.03
2023-05-16T21:42:22.790Z,30.27
2023-05-16T21:45:16.556Z,30.23
2023-05-16T21:48:04.957Z,30.27
2023-05-16T21:50:53.047Z,28.63
2023-05-16T21:53:40.996Z,22.52
2023-05-16T21:56:29.237Z,24.25
2023-05-16T21:59:17.264Z,22.55
2023-05-16T22:02:07.869Z,21.45
2023-05-16T22:04:55.991Z,22.63
2023-05-16T22:07:44.424Z,21.25
2023-05-16T22:10:32.518Z,17.30
2023-05-16T22:13:20.702Z,14.27
2023-05-16T22:16:08.746Z,13.05
2023-05-16T22:18:58.267Z,11.25
2023-05-16T22:21:46.244Z,12.23
2023-05-16T22:24:34.360Z,11.25
2023-05-16T22:27:22.436Z,12.88
2023-05-16T22:30:10.862Z,9.98
2023-05-16T22:32:58.954Z,10.23
2023-05-16T22:35:48.483Z,11.10
2023-05-16T22:38:36.484Z,10.52
2023-05-16T22:41:24.504Z,10.82
2023-05-16T22:44:12.503Z,9.45
2023-05-16T22:47:00.614Z,8.45
2023-05-16T22:49:48.627Z,7.70
2023-05-16T22:52:41.197Z,7.78
2023-05-16T22:55:29.542Z,7.20
2023-05-16T22:58:17.921Z,7.47
2023-05-16T23:01:06.019Z,7.60
2023-05-16T23:03:54.041Z,6.72
2023-05-16T23:06:42.094Z,6.88
2023-05-16T23:09:31.497Z,7.53
2023-05-16T23:12:21.262Z,6.82
2023-05-16T23:15:10.509Z,7.80
2023-05-16T23:17:58.657Z,6.20
2023-05-16T23:20:46.982Z,6.20
2023-05-16T23:23:35.145Z,6.65
2023-05-16T23:26:24.617Z,6.43
2023-05-16T23:29:12.629Z,7.13
2023-05-16T23:32:00.591Z,7.75
2023-05-16T23:34:48.609Z,7.13
2023-05-16T23:37:36.855Z,7.72
2023-05-16T23:40:24.817Z,7.80
2023-05-16T23:43:14.240Z,7.53
2023-05-16T23:46:02.254Z,7.60
2023-05-16T23:48:50.498Z,7.97
2023-05-16T23:51:52.791Z,8.02
2023-05-16T23:54:45.485Z,7.75
2023-05-16T23:57:33.463Z,8.25
